sensor_id;sensor_type;location;lat;lon;timestamp;P1;durP1;ratioP1;P2;durP2;ratioP2
58302;SDS011;44109;52.398;7.024;2023-08-31T00:01:00;2.33;;;1.30;;
58302;SDS011;44109;52.398;7.024;2023-08-31T00:03:31;2.90;;;1.25;;
58302;SDS011;44109;52.398;7.024;2023-08-31T00:06:02;1.73;;;1.20;;
58302;SDS011;44109;52.398;7.024;2023-08-31T00:08:33;2.33;;;1.48;;
58302;SDS011;44109;52.398;7.024;2023-08-31T00:11:02;1.23;;;0.85;;
58302;SDS011;44109;52.398;7.024;2023-08-31T00:13:29;2.47;;;1.48;;
58302;SDS011;44109;52.398;7.024;2023-08-31T00:15:57;6.05;;;1.80;;
58302;SDS011;44109;52.398;7.024;2023-08-31T00:18:25;3.38;;;1.83;;
58302;SDS011;44109;52.398;7.024;2023-08-31T00:20:53;1.80;;;1.20;;
58302;SDS011;44109;52.398;7.024;2023-08-31T00:23:22;1.77;;;0.82;;
58302;SDS011;44109;52.398;7.024;2023-08-31T00:25:50;2.05;;;0.80;;
58302;SDS011;44109;52.398;7.024;2023-08-31T00:28:19;3.17;;;1.38;;
58302;SDS011;44109;52.398;7.024;2023-08-31T00:30:47;3.67;;;1.52;;
58302;SDS011;44109;52.398;7.024;2023-08-31T00:33:15;2.75;;;1.10;;
58302;SDS011;44109;52.398;7.024;2023-08-31T00:35:43;4.88;;;1.42;;
58302;SDS011;44109;52.398;7.024;2023-08-31T00:38:11;3.47;;;1.65;;
58302;SDS011;44109;52.398;7.024;2023-08-31T00:40:41;3.80;;;1.67;;
58302;SDS011;44109;52.398;7.024;2023-08-31T00:43:12;8.77;;;1.98;;
58302;SDS011;44109;52.398;7.024;2023-08-31T00:45:43;3.65;;;1.30;;
58302;SDS011;44109;52.398;7.024;2023-08-31T00:48:12;3.05;;;1.60;;
58302;SDS011;44109;52.398;7.024;2023-08-31T00:50:43;4.43;;;2.03;;
58302;SDS011;44109;52.398;7.024;2023-08-31T00:53:12;2.92;;;1.27;;
58302;SDS011;44109;52.398;7.024;2023-08-31T00:55:42;4.93;;;1.23;;
58302;SDS011;44109;52.398;7.024;2023-08-31T00:58:11;7.43;;;1.50;;
58302;SDS011;44109;52.398;7.024;2023-08-31T01:00:40;3.20;;;1.83;;
58302;SDS011;44109;52.398;7.024;2023-08-31T01:03:18;3.97;;;2.20;;
58302;SDS011;44109;52.398;7.024;2023-08-31T01:06:05;5.10;;;1.85;;
58302;SDS011;44109;52.398;7.024;2023-08-31T01:08:56;3.17;;;1.40;;
58302;SDS011;44109;52.398;7.024;2023-08-31T01:11:37;3.15;;;1.40;;
58302;SDS011;44109;52.398;7.024;2023-08-31T01:16:50;2.38;;;0.93;;
58302;SDS011;44109;52.398;7.024;2023-08-31T01:19:24;2.70;;;1.45;;
58302;SDS011;44109;52.398;7.024;2023-08-31T01:22:13;3.97;;;1.55;;
58302;SDS011;44109;52.398;7.024;2023-08-31T01:24:53;2.47;;;1.42;;
58302;SDS011;44109;52.398;7.024;2023-08-31T01:27:22;1.33;;;0.93;;
58302;SDS011;44109;52.398;7.024;2023-08-31T01:29:50;2.63;;;1.40;;
58302;SDS011;44109;52.398;7.024;2023-08-31T01:32:21;1.95;;;1.00;;
58302;SDS011;44109;52.398;7.024;2023-08-31T01:34:49;2.38;;;0.88;;
58302;SDS011;44109;52.398;7.024;2023-08-31T01:37:34;3.22;;;1.60;;
58302;SDS011;44109;52.398;7.024;2023-08-31T01:40:14;1.95;;;1.15;;
58302;SDS011;44109;52.398;7.024;2023-08-31T01:42:47;2.63;;;1.30;;
58302;SDS011;44109;52.398;7.024;2023-08-31T01:45:16;1.85;;;1.10;;
58302;SDS011;44109;52.398;7.024;2023-08-31T01:47:48;2.53;;;1.33;;
58302;SDS011;44109;52.398;7.024;2023-08-31T01:50:16;3.65;;;1.65;;
58302;SDS011;44109;52.398;7.024;2023-08-31T01:52:44;3.13;;;1.52;;
58302;SDS011;44109;52.398;7.024;2023-08-31T01:55:13;2.72;;;1.45;;
58302;SDS011;44109;52.398;7.024;2023-08-31T01:57:41;2.25;;;1.30;;
58302;SDS011;44109;52.398;7.024;2023-08-31T02:00:09;4.40;;;1.95;;
58302;SDS011;44109;52.398;7.024;2023-08-31T02:02:38;2.05;;;1.20;;
58302;SDS011;44109;52.398;7.024;2023-08-31T02:05:06;3.55;;;1.60;;
58302;SDS011;44109;52.398;7.024;2023-08-31T02:07:34;4.43;;;1.70;;
58302;SDS011;44109;52.398;7.024;2023-08-31T02:10:02;3.30;;;1.58;;
58302;SDS011;44109;52.398;7.024;2023-08-31T02:12:33;4.40;;;1.60;;
58302;SDS011;44109;52.398;7.024;2023-08-31T02:15:02;2.92;;;1.60;;
58302;SDS011;44109;52.398;7.024;2023-08-31T02:17:31;7.15;;;2.40;;
58302;SDS011;44109;52.398;7.024;2023-08-31T02:20:00;3.28;;;1.80;;
58302;SDS011;44109;52.398;7.024;2023-08-31T02:22:30;2.58;;;1.63;;
58302;SDS011;44109;52.398;7.024;2023-08-31T02:25:01;5.05;;;2.78;;
58302;SDS011;44109;52.398;7.024;2023-08-31T02:27:29;4.07;;;2.30;;
58302;SDS011;44109;52.398;7.024;2023-08-31T02:29:58;5.18;;;2.65;;
58302;SDS011;44109;52.398;7.024;2023-08-31T02:32:26;4.90;;;2.33;;
58302;SDS011;44109;52.398;7.024;2023-08-31T02:34:54;4.15;;;2.17;;
58302;SDS011;44109;52.398;7.024;2023-08-31T02:37:21;3.22;;;1.85;;
58302;SDS011;44109;52.398;7.024;2023-08-31T02:39:49;5.63;;;2.15;;
58302;SDS011;44109;52.398;7.024;2023-08-31T02:42:17;4.25;;;2.45;;
58302;SDS011;44109;52.398;7.024;2023-08-31T02:44:45;4.07;;;2.33;;
58302;SDS011;44109;52.398;7.024;2023-08-31T02:47:14;6.25;;;2.75;;
58302;SDS011;44109;52.398;7.024;2023-08-31T02:49:41;5.57;;;2.47;;
58302;SDS011;44109;52.398;7.024;2023-08-31T02:52:09;6.25;;;2.83;;
58302;SDS011;44109;52.398;7.024;2023-08-31T02:54:37;4.80;;;2.47;;
58302;SDS011;44109;52.398;7.024;2023-08-31T02:57:04;5.10;;;3.53;;
58302;SDS011;44109;52.398;7.024;2023-08-31T02:59:33;6.20;;;3.05;;
58302;SDS011;44109;52.398;7.024;2023-08-31T03:02:01;8.43;;;3.28;;
58302;SDS011;44109;52.398;7.024;2023-08-31T03:04:31;6.03;;;3.28;;
58302;SDS011;44109;52.398;7.024;2023-08-31T03:06:58;5.32;;;3.00;;
58302;SDS011;44109;52.398;7.024;2023-08-31T03:09:26;6.90;;;3.67;;
58302;SDS011;44109;52.398;7.024;2023-08-31T03:11:53;5.22;;;3.17;;
58302;SDS011;44109;52.398;7.024;2023-08-31T03:14:21;7.57;;;3.25;;
58302;SDS011;44109;52.398;7.024;2023-08-31T03:16:49;4.38;;;2.63;;
58302;SDS011;44109;52.398;7.024;2023-08-31T03:19:17;5.93;;;3.25;;
58302;SDS011;44109;52.398;7.024;2023-08-31T03:21:46;6.32;;;3.90;;
58302;SDS011;44109;52.398;7.024;2023-08-31T03:24:13;7.32;;;3.97;;
58302;SDS011;44109;52.398;7.024;2023-08-31T03:26:41;6.65;;;3.63;;
58302;SDS011;44109;52.398;7.024;2023-08-31T03:29:08;6.30;;;3.33;;
58302;SDS011;44109;52.398;7.024;2023-08-31T03:31:36;7.15;;;4.03;;
58302;SDS011;44109;52.398;7.024;2023-08-31T03:34:04;6.22;;;3.63;;
58302;SDS011;44109;52.398;7.024;2023-08-31T03:36:31;5.68;;;3.85;;
58302;SDS011;44109;52.398;7.024;2023-08-31T03:39:00;6.05;;;3.72;;
58302;SDS011;44109;52.398;7.024;2023-08-31T03:41:28;8.45;;;4.53;;
58302;SDS011;44109;52.398;7.024;2023-08-31T03:43:56;5.22;;;3.08;;
58302;SDS011;44109;52.398;7.024;2023-08-31T03:46:23;8.40;;;4.20;;
58302;SDS011;44109;52.398;7.024;2023-08-31T03:48:52;7.55;;;3.60;;
58302;SDS011;44109;52.398;7.024;2023-08-31T03:51:20;7.30;;;4.00;;
58302;SDS011;44109;52.398;7.024;2023-08-31T03:53:47;6.03;;;3.53;;
58302;SDS011;44109;52.398;7.024;2023-08-31T03:56:16;9.07;;;4.82;;
58302;SDS011;44109;52.398;7.024;2023-08-31T03:58:44;7.25;;;3.65;;
58302;SDS011;44109;52.398;7.024;2023-08-31T04:01:11;4.80;;;3.38;;
58302;SDS011;44109;52.398;7.024;2023-08-31T04:03:40;6.35;;;3.88;;
58302;SDS011;44109;52.398;7.024;2023-08-31T04:06:09;7.07;;;3.83;;
58302;SDS011;44109;52.398;7.024;2023-08-31T04:08:37;9.77;;;4.97;;
58302;SDS011;44109;52.398;7.024;2023-08-31T04:11:04;7.82;;;4.05;;
58302;SDS011;44109;52.398;7.024;2023-08-31T04:13:33;10.57;;;4.65;;
58302;SDS011;44109;52.398;7.024;2023-08-31T04:16:01;8.63;;;4.47;;
58302;SDS011;44109;52.398;7.024;2023-08-31T04:18:29;8.13;;;4.32;;
58302;SDS011;44109;52.398;7.024;2023-08-31T04:20:56;7.00;;;4.05;;
58302;SDS011;44109;52.398;7.024;2023-08-31T04:23:24;5.43;;;3.47;;
58302;SDS011;44109;52.398;7.024;2023-08-31T04:25:52;10.23;;;4.00;;
58302;SDS011;44109;52.398;7.024;2023-08-31T04:28:20;8.68;;;3.92;;
58302;SDS011;44109;52.398;7.024;2023-08-31T04:30:49;6.85;;;3.55;;
58302;SDS011;44109;52.398;7.024;2023-08-31T04:33:17;6.38;;;3.72;;
58302;SDS011;44109;52.398;7.024;2023-08-31T04:35:45;6.07;;;3.97;;
58302;SDS011;44109;52.398;7.024;2023-08-31T04:38:12;6.65;;;3.17;;
58302;SDS011;44109;52.398;7.024;2023-08-31T04:40:40;7.60;;;3.85;;
58302;SDS011;44109;52.398;7.024;2023-08-31T04:43:09;5.95;;;3.78;;
58302;SDS011;44109;52.398;7.024;2023-08-31T04:45:36;7.20;;;4.35;;
58302;SDS011;44109;52.398;7.024;2023-08-31T04:48:06;6.18;;;4.22;;
58302;SDS011;44109;52.398;7.024;2023-08-31T04:50:33;7.00;;;4.13;;
58302;SDS011;44109;52.398;7.024;2023-08-31T04:53:01;11.38;;;4.68;;
58302;SDS011;44109;52.398;7.024;2023-08-31T04:55:30;8.38;;;4.78;;
58302;SDS011;44109;52.398;7.024;2023-08-31T04:57:58;10.85;;;5.03;;
58302;SDS011;44109;52.398;7.024;2023-08-31T05:00:25;10.10;;;6.10;;
58302;SDS011;44109;52.398;7.024;2023-08-31T05:02:53;11.13;;;5.97;;
58302;SDS011;44109;52.398;7.024;2023-08-31T05:05:22;7.82;;;4.40;;
58302;SDS011;44109;52.398;7.024;2023-08-31T05:07:50;10.98;;;5.88;;
58302;SDS011;44109;52.398;7.024;2023-08-31T05:10:18;10.45;;;5.57;;
58302;SDS011;44109;52.398;7.024;2023-08-31T05:12:45;10.50;;;6.35;;
58302;SDS011;44109;52.398;7.024;2023-08-31T05:15:13;11.05;;;5.63;;
58302;SDS011;44109;52.398;7.024;2023-08-31T05:17:40;12.15;;;5.35;;
58302;SDS011;44109;52.398;7.024;2023-08-31T05:20:08;10.75;;;5.13;;
58302;SDS011;44109;52.398;7.024;2023-08-31T05:22:38;8.05;;;4.43;;
58302;SDS011;44109;52.398;7.024;2023-08-31T05:25:06;6.55;;;4.30;;
58302;SDS011;44109;52.398;7.024;2023-08-31T05:27:34;10.73;;;5.25;;
58302;SDS011;44109;52.398;7.024;2023-08-31T05:30:02;8.98;;;5.28;;
58302;SDS011;44109;52.398;7.024;2023-08-31T05:32:30;8.65;;;4.55;;
58302;SDS011;44109;52.398;7.024;2023-08-31T05:34:58;9.50;;;4.78;;
58302;SDS011;44109;52.398;7.024;2023-08-31T05:37:26;7.32;;;5.03;;
58302;SDS011;44109;52.398;7.024;2023-08-31T05:39:59;10.98;;;6.07;;
58302;SDS011;44109;52.398;7.024;2023-08-31T05:42:31;9.07;;;4.80;;
58302;SDS011;44109;52.398;7.024;2023-08-31T05:44:59;9.32;;;4.50;;
58302;SDS011;44109;52.398;7.024;2023-08-31T05:47:27;16.83;;;5.40;;
58302;SDS011;44109;52.398;7.024;2023-08-31T05:49:54;9.85;;;4.30;;
58302;SDS011;44109;52.398;7.024;2023-08-31T05:52:22;5.97;;;3.75;;
58302;SDS011;44109;52.398;7.024;2023-08-31T05:54:49;6.68;;;4.47;;
58302;SDS011;44109;52.398;7.024;2023-08-31T05:57:19;8.13;;;4.32;;
58302;SDS011;44109;52.398;7.024;2023-08-31T05:59:47;6.07;;;3.40;;
58302;SDS011;44109;52.398;7.024;2023-08-31T06:02:15;10.95;;;4.18;;
58302;SDS011;44109;52.398;7.024;2023-08-31T06:04:42;5.55;;;2.97;;
58302;SDS011;44109;52.398;7.024;2023-08-31T06:07:10;7.28;;;3.95;;
58302;SDS011;44109;52.398;7.024;2023-08-31T06:09:38;6.80;;;3.85;;
58302;SDS011;44109;52.398;7.024;2023-08-31T06:12:06;8.95;;;3.60;;
58302;SDS011;44109;52.398;7.024;2023-08-31T06:14:35;9.20;;;3.50;;
58302;SDS011;44109;52.398;7.024;2023-08-31T06:17:03;8.23;;;3.22;;
58302;SDS011;44109;52.398;7.024;2023-08-31T06:19:31;5.95;;;3.58;;
58302;SDS011;44109;52.398;7.024;2023-08-31T06:21:58;7.10;;;2.88;;
58302;SDS011;44109;52.398;7.024;2023-08-31T06:24:26;5.50;;;3.28;;
58302;SDS011;44109;52.398;7.024;2023-08-31T06:26:53;3.05;;;2.20;;
58302;SDS011;44109;52.398;7.024;2023-08-31T06:29:22;5.80;;;3.13;;
58302;SDS011;44109;52.398;7.024;2023-08-31T06:31:51;4.30;;;2.47;;
58302;SDS011;44109;52.398;7.024;2023-08-31T06:34:19;5.00;;;2.42;;
58302;SDS011;44109;52.398;7.024;2023-08-31T06:36:46;5.03;;;2.38;;
58302;SDS011;44109;52.398;7.024;2023-08-31T06:39:14;4.00;;;2.10;;
58302;SDS011;44109;52.398;7.024;2023-08-31T06:41:42;4.70;;;2.45;;
58302;SDS011;44109;52.398;7.024;2023-08-31T06:44:09;5.70;;;2.60;;
58302;SDS011;44109;52.398;7.024;2023-08-31T06:46:37;4.22;;;2.65;;
58302;SDS011;44109;52.398;7.024;2023-08-31T06:49:06;8.23;;;2.28;;
58302;SDS011;44109;52.398;7.024;2023-08-31T06:51:33;3.70;;;2.42;;
58302;SDS011;44109;52.398;7.024;2023-08-31T06:54:02;4.85;;;2.65;;
58302;SDS011;44109;52.398;7.024;2023-08-31T06:56:32;4.35;;;2.42;;
58302;SDS011;44109;52.398;7.024;2023-08-31T06:59:00;8.15;;;3.40;;
58302;SDS011;44109;52.398;7.024;2023-08-31T07:01:28;5.97;;;3.08;;
58302;SDS011;44109;52.398;7.024;2023-08-31T07:03:56;5.53;;;3.72;;
58302;SDS011;44109;52.398;7.024;2023-08-31T07:06:25;6.80;;;3.83;;
58302;SDS011;44109;52.398;7.024;2023-08-31T07:08:53;5.32;;;3.05;;
58302;SDS011;44109;52.398;7.024;2023-08-31T07:11:20;4.65;;;2.85;;
58302;SDS011;44109;52.398;7.024;2023-08-31T07:13:48;6.85;;;3.53;;
58302;SDS011;44109;52.398;7.024;2023-08-31T07:16:15;5.38;;;3.60;;
58302;SDS011;44109;52.398;7.024;2023-08-31T07:18:43;7.60;;;4.00;;
58302;SDS011;44109;52.398;7.024;2023-08-31T07:21:11;6.60;;;3.85;;
58302;SDS011;44109;52.398;7.024;2023-08-31T07:23:43;8.50;;;3.90;;
58302;SDS011;44109;52.398;7.024;2023-08-31T07:26:12;6.18;;;3.78;;
58302;SDS011;44109;52.398;7.024;2023-08-31T07:28:41;5.63;;;2.95;;
58302;SDS011;44109;52.398;7.024;2023-08-31T07:31:09;6.03;;;3.85;;
58302;SDS011;44109;52.398;7.024;2023-08-31T07:33:37;5.15;;;2.80;;
58302;SDS011;44109;52.398;7.024;2023-08-31T07:36:05;5.57;;;3.15;;
58302;SDS011;44109;52.398;7.024;2023-08-31T07:38:33;6.05;;;3.78;;
58302;SDS011;44109;52.398;7.024;2023-08-31T07:41:02;4.70;;;2.90;;
58302;SDS011;44109;52.398;7.024;2023-08-31T07:43:31;6.53;;;2.47;;
58302;SDS011;44109;52.398;7.024;2023-08-31T07:45:58;4.53;;;3.17;;
58302;SDS011;44109;52.398;7.024;2023-08-31T07:48:26;9.20;;;3.38;;
58302;SDS011;44109;52.398;7.024;2023-08-31T07:50:54;5.35;;;2.40;;
58302;SDS011;44109;52.398;7.024;2023-08-31T07:53:22;3.83;;;2.40;;
58302;SDS011;44109;52.398;7.024;2023-08-31T07:55:50;6.45;;;2.72;;
58302;SDS011;44109;52.398;7.024;2023-08-31T07:58:22;4.93;;;3.25;;
58302;SDS011;44109;52.398;7.024;2023-08-31T08:00:52;4.90;;;2.40;;
58302;SDS011;44109;52.398;7.024;2023-08-31T08:03:20;4.53;;;1.92;;
58302;SDS011;44109;52.398;7.024;2023-08-31T08:05:48;4.22;;;2.28;;
58302;SDS011;44109;52.398;7.024;2023-08-31T08:08:16;3.25;;;2.10;;
58302;SDS011;44109;52.398;7.024;2023-08-31T08:10:44;5.88;;;2.20;;
58302;SDS011;44109;52.398;7.024;2023-08-31T08:13:12;4.20;;;2.05;;
58302;SDS011;44109;52.398;7.024;2023-08-31T08:15:41;4.38;;;2.47;;
58302;SDS011;44109;52.398;7.024;2023-08-31T08:18:08;6.07;;;2.25;;
58302;SDS011;44109;52.398;7.024;2023-08-31T08:20:36;2.60;;;1.83;;
58302;SDS011;44109;52.398;7.024;2023-08-31T08:23:04;3.45;;;1.33;;
58302;SDS011;44109;52.398;7.024;2023-08-31T08:25:32;3.58;;;1.63;;
58302;SDS011;44109;52.398;7.024;2023-08-31T08:28:00;3.50;;;1.75;;
58302;SDS011;44109;52.398;7.024;2023-08-31T08:30:29;3.13;;;2.13;;
58302;SDS011;44109;52.398;7.024;2023-08-31T08:32:58;3.42;;;1.48;;
58302;SDS011;44109;52.398;7.024;2023-08-31T08:35:25;2.53;;;1.90;;
58302;SDS011;44109;52.398;7.024;2023-08-31T08:37:53;3.50;;;1.73;;
58302;SDS011;44109;52.398;7.024;2023-08-31T08:40:21;2.38;;;1.23;;
58302;SDS011;44109;52.398;7.024;2023-08-31T08:42:48;2.65;;;1.77;;
58302;SDS011;44109;52.398;7.024;2023-08-31T08:45:21;3.70;;;1.30;;
58302;SDS011;44109;52.398;7.024;2023-08-31T08:47:52;2.92;;;1.52;;
58302;SDS011;44109;52.398;7.024;2023-08-31T08:50:22;2.75;;;1.27;;
58302;SDS011;44109;52.398;7.024;2023-08-31T08:52:51;3.67;;;1.77;;
58302;SDS011;44109;52.398;7.024;2023-08-31T08:55:18;3.15;;;1.40;;
58302;SDS011;44109;52.398;7.024;2023-08-31T08:57:47;2.85;;;1.20;;
58302;SDS011;44109;52.398;7.024;2023-08-31T09:00:15;5.30;;;1.08;;
58302;SDS011;44109;52.398;7.024;2023-08-31T09:02:43;2.30;;;1.27;;
58302;SDS011;44109;52.398;7.024;2023-08-31T09:05:11;1.38;;;0.90;;
58302;SDS011;44109;52.398;7.024;2023-08-31T09:07:46;2.55;;;1.00;;
58302;SDS011;44109;52.398;7.024;2023-08-31T09:10:32;0.82;;;0.60;;
58302;SDS011;44109;52.398;7.024;2023-08-31T09:13:04;1.48;;;0.73;;
58302;SDS011;44109;52.398;7.024;2023-08-31T09:15:41;2.10;;;1.33;;
58302;SDS011;44109;52.398;7.024;2023-08-31T09:18:14;2.35;;;1.05;;
58302;SDS011;44109;52.398;7.024;2023-08-31T09:20:44;1.97;;;0.90;;
58302;SDS011;44109;52.398;7.024;2023-08-31T09:23:15;2.88;;;1.23;;
58302;SDS011;44109;52.398;7.024;2023-08-31T09:25:44;4.68;;;1.20;;
58302;SDS011;44109;52.398;7.024;2023-08-31T09:28:15;1.33;;;0.55;;
58302;SDS011;44109;52.398;7.024;2023-08-31T09:30:44;0.73;;;0.47;;
58302;SDS011;44109;52.398;7.024;2023-08-31T09:33:14;1.88;;;1.02;;
58302;SDS011;44109;52.398;7.024;2023-08-31T09:35:50;2.08;;;1.30;;
58302;SDS011;44109;52.398;7.024;2023-08-31T09:38:24;2.53;;;1.27;;
58302;SDS011;44109;52.398;7.024;2023-08-31T09:40:51;4.60;;;1.15;;
58302;SDS011;44109;52.398;7.024;2023-08-31T09:43:30;1.45;;;0.90;;
58302;SDS011;44109;52.398;7.024;2023-08-31T09:45:58;1.75;;;1.00;;
58302;SDS011;44109;52.398;7.024;2023-08-31T09:48:26;3.88;;;1.17;;
58302;SDS011;44109;52.398;7.024;2023-08-31T09:50:54;2.58;;;0.90;;
58302;SDS011;44109;52.398;7.024;2023-08-31T09:53:24;1.90;;;1.00;;
58302;SDS011;44109;52.398;7.024;2023-08-31T09:55:56;2.47;;;1.00;;
58302;SDS011;44109;52.398;7.024;2023-08-31T09:58:24;1.90;;;1.00;;
58302;SDS011;44109;52.398;7.024;2023-08-31T10:00:54;2.47;;;0.90;;
58302;SDS011;44109;52.398;7.024;2023-08-31T10:03:22;1.98;;;1.38;;
58302;SDS011;44109;52.398;7.024;2023-08-31T10:05:52;2.00;;;1.08;;
58302;SDS011;44109;52.398;7.024;2023-08-31T10:08:22;1.25;;;0.65;;
58302;SDS011;44109;52.398;7.024;2023-08-31T10:10:58;2.13;;;0.95;;
58302;SDS011;44109;52.398;7.024;2023-08-31T10:13:29;1.52;;;0.85;;
58302;SDS011;44109;52.398;7.024;2023-08-31T10:16:01;0.95;;;0.85;;
58302;SDS011;44109;52.398;7.024;2023-08-31T10:18:32;3.33;;;1.45;;
58302;SDS011;44109;52.398;7.024;2023-08-31T10:21:02;1.10;;;0.70;;
58302;SDS011;44109;52.398;7.024;2023-08-31T10:23:32;1.70;;;1.13;;
58302;SDS011;44109;52.398;7.024;2023-08-31T10:26:02;2.13;;;1.02;;
58302;SDS011;44109;52.398;7.024;2023-08-31T10:28:41;1.73;;;0.90;;
58302;SDS011;44109;52.398;7.024;2023-08-31T10:31:09;2.13;;;0.88;;
58302;SDS011;44109;52.398;7.024;2023-08-31T10:33:43;1.70;;;0.90;;
58302;SDS011;44109;52.398;7.024;2023-08-31T10:36:12;1.17;;;0.90;;
58302;SDS011;44109;52.398;7.024;2023-08-31T10:38:45;2.03;;;0.82;;
58302;SDS011;44109;52.398;7.024;2023-08-31T10:41:34;1.58;;;0.50;;
58302;SDS011;44109;52.398;7.024;2023-08-31T10:44:02;5.38;;;1.17;;
58302;SDS011;44109;52.398;7.024;2023-08-31T10:46:46;2.63;;;0.65;;
58302;SDS011;44109;52.398;7.024;2023-08-31T10:49:14;0.88;;;0.40;;
58302;SDS011;44109;52.398;7.024;2023-08-31T10:51:45;2.42;;;0.40;;
58302;SDS011;44109;52.398;7.024;2023-08-31T10:54:21;0.80;;;0.52;;
58302;SDS011;44109;52.398;7.024;2023-08-31T10:56:54;2.25;;;0.93;;
58302;SDS011;44109;52.398;7.024;2023-08-31T10:59:40;1.95;;;0.52;;
58302;SDS011;44109;52.398;7.024;2023-08-31T11:02:27;1.15;;;0.43;;
58302;SDS011;44109;52.398;7.024;2023-08-31T11:05:02;1.90;;;0.60;;
58302;SDS011;44109;52.398;7.024;2023-08-31T11:10:11;1.40;;;0.93;;
58302;SDS011;44109;52.398;7.024;2023-08-31T11:12:43;1.70;;;0.70;;
58302;SDS011;44109;52.398;7.024;2023-08-31T11:15:12;5.18;;;1.05;;
58302;SDS011;44109;52.398;7.024;2023-08-31T11:17:42;2.00;;;0.82;;
58302;SDS011;44109;52.398;7.024;2023-08-31T11:20:15;3.55;;;0.70;;
58302;SDS011;44109;52.398;7.024;2023-08-31T11:22:45;3.95;;;1.08;;
58302;SDS011;44109;52.398;7.024;2023-08-31T11:25:17;1.27;;;0.73;;
58302;SDS011;44109;52.398;7.024;2023-08-31T11:27:55;1.85;;;0.60;;
58302;SDS011;44109;52.398;7.024;2023-08-31T11:30:24;3.67;;;0.85;;
58302;SDS011;44109;52.398;7.024;2023-08-31T11:32:53;1.67;;;0.80;;
58302;SDS011;44109;52.398;7.024;2023-08-31T11:35:21;2.22;;;1.13;;
58302;SDS011;44109;52.398;7.024;2023-08-31T11:37:51;2.22;;;0.70;;
58302;SDS011;44109;52.398;7.024;2023-08-31T11:40:24;2.20;;;0.90;;
58302;SDS011;44109;52.398;7.024;2023-08-31T11:42:53;1.02;;;0.73;;
58302;SDS011;44109;52.398;7.024;2023-08-31T11:45:21;1.35;;;0.70;;
58302;SDS011;44109;52.398;7.024;2023-08-31T11:47:51;1.42;;;0.70;;
58302;SDS011;44109;52.398;7.024;2023-08-31T11:50:21;1.40;;;0.80;;
58302;SDS011;44109;52.398;7.024;2023-08-31T11:52:50;3.47;;;1.35;;
58302;SDS011;44109;52.398;7.024;2023-08-31T11:55:19;1.35;;;0.80;;
58302;SDS011;44109;52.398;7.024;2023-08-31T11:57:50;1.42;;;0.60;;
58302;SDS011;44109;52.398;7.024;2023-08-31T12:00:20;3.30;;;0.77;;
58302;SDS011;44109;52.398;7.024;2023-08-31T12:02:56;3.33;;;1.20;;
58302;SDS011;44109;52.398;7.024;2023-08-31T12:05:25;1.85;;;0.57;;
58302;SDS011;44109;52.398;7.024;2023-08-31T12:07:53;3.63;;;0.85;;
58302;SDS011;44109;52.398;7.024;2023-08-31T12:10:23;2.95;;;0.73;;
58302;SDS011;44109;52.398;7.024;2023-08-31T12:12:53;0.88;;;0.47;;
58302;SDS011;44109;52.398;7.024;2023-08-31T12:15:21;3.85;;;0.90;;
58302;SDS011;44109;52.398;7.024;2023-08-31T12:17:49;1.92;;;0.63;;
58302;SDS011;44109;52.398;7.024;2023-08-31T12:20:24;0.70;;;0.45;;
58302;SDS011;44109;52.398;7.024;2023-08-31T12:22:53;1.50;;;0.40;;
58302;SDS011;44109;52.398;7.024;2023-08-31T12:25:20;3.38;;;0.52;;
58302;SDS011;44109;52.398;7.024;2023-08-31T12:27:48;4.13;;;0.68;;
58302;SDS011;44109;52.398;7.024;2023-08-31T12:30:18;0.40;;;0.35;;
58302;SDS011;44109;52.398;7.024;2023-08-31T12:32:45;4.68;;;1.55;;
58302;SDS011;44109;52.398;7.024;2023-08-31T12:35:13;1.23;;;0.47;;
58302;SDS011;44109;52.398;7.024;2023-08-31T12:37:41;2.13;;;0.50;;
58302;SDS011;44109;52.398;7.024;2023-08-31T12:40:09;0.98;;;0.30;;
58302;SDS011;44109;52.398;7.024;2023-08-31T12:42:38;0.35;;;0.22;;
58302;SDS011;44109;52.398;7.024;2023-08-31T12:45:06;0.38;;;0.20;;
58302;SDS011;44109;52.398;7.024;2023-08-31T12:47:36;0.65;;;0.40;;
58302;SDS011;44109;52.398;7.024;2023-08-31T12:50:04;2.60;;;0.30;;
58302;SDS011;44109;52.398;7.024;2023-08-31T12:52:33;2.33;;;1.02;;
58302;SDS011;44109;52.398;7.024;2023-08-31T12:55:00;0.73;;;0.30;;
58302;SDS011;44109;52.398;7.024;2023-08-31T12:57:30;0.90;;;0.47;;
58302;SDS011;44109;52.398;7.024;2023-08-31T12:59:57;1.13;;;0.45;;
58302;SDS011;44109;52.398;7.024;2023-08-31T13:02:25;0.90;;;0.40;;
58302;SDS011;44109;52.398;7.024;2023-08-31T13:04:54;0.40;;;0.30;;
58302;SDS011;44109;52.398;7.024;2023-08-31T13:07:21;1.27;;;0.40;;
58302;SDS011;44109;52.398;7.024;2023-08-31T13:09:49;1.50;;;0.45;;
58302;SDS011;44109;52.398;7.024;2023-08-31T13:12:17;0.25;;;0.15;;
58302;SDS011;44109;52.398;7.024;2023-08-31T13:14:45;1.55;;;0.57;;
58302;SDS011;44109;52.398;7.024;2023-08-31T13:17:12;1.67;;;0.88;;
58302;SDS011;44109;52.398;7.024;2023-08-31T13:19:40;1.83;;;0.47;;
58302;SDS011;44109;52.398;7.024;2023-08-31T13:22:09;0.75;;;0.30;;
58302;SDS011;44109;52.398;7.024;2023-08-31T13:24:41;0.75;;;0.30;;
58302;SDS011;44109;52.398;7.024;2023-08-31T13:27:09;0.77;;;0.30;;
58302;SDS011;44109;52.398;7.024;2023-08-31T13:29:36;2.55;;;0.60;;
58302;SDS011;44109;52.398;7.024;2023-08-31T13:32:04;0.80;;;0.32;;
58302;SDS011;44109;52.398;7.024;2023-08-31T13:34:33;2.35;;;0.30;;
58302;SDS011;44109;52.398;7.024;2023-08-31T13:37:00;0.50;;;0.30;;
58302;SDS011;44109;52.398;7.024;2023-08-31T13:39:30;1.92;;;0.30;;
58302;SDS011;44109;52.398;7.024;2023-08-31T13:42:01;0.90;;;0.40;;
58302;SDS011;44109;52.398;7.024;2023-08-31T13:44:29;0.50;;;0.20;;
58302;SDS011;44109;52.398;7.024;2023-08-31T13:46:57;1.02;;;0.60;;
58302;SDS011;44109;52.398;7.024;2023-08-31T13:49:25;0.75;;;0.60;;
58302;SDS011;44109;52.398;7.024;2023-08-31T13:51:53;0.30;;;0.30;;
58302;SDS011;44109;52.398;7.024;2023-08-31T13:54:20;2.10;;;0.40;;
58302;SDS011;44109;52.398;7.024;2023-08-31T13:56:49;1.17;;;0.40;;
58302;SDS011;44109;52.398;7.024;2023-08-31T13:59:17;3.28;;;0.60;;
58302;SDS011;44109;52.398;7.024;2023-08-31T14:01:45;0.98;;;0.50;;
58302;SDS011;44109;52.398;7.024;2023-08-31T14:04:12;1.13;;;0.55;;
58302;SDS011;44109;52.398;7.024;2023-08-31T14:06:40;0.85;;;0.45;;
58302;SDS011;44109;52.398;7.024;2023-08-31T14:09:08;1.05;;;0.63;;
58302;SDS011;44109;52.398;7.024;2023-08-31T14:11:35;3.33;;;0.68;;
58302;SDS011;44109;52.398;7.024;2023-08-31T14:14:04;0.70;;;0.40;;
58302;SDS011;44109;52.398;7.024;2023-08-31T14:16:36;1.70;;;0.40;;
58302;SDS011;44109;52.398;7.024;2023-08-31T14:19:04;0.68;;;0.30;;
58302;SDS011;44109;52.398;7.024;2023-08-31T14:21:32;1.15;;;0.22;;
58302;SDS011;44109;52.398;7.024;2023-08-31T14:24:00;2.03;;;0.40;;
58302;SDS011;44109;52.398;7.024;2023-08-31T14:26:30;2.28;;;0.40;;
58302;SDS011;44109;52.398;7.024;2023-08-31T14:28:57;1.13;;;0.45;;
58302;SDS011;44109;52.398;7.024;2023-08-31T14:31:26;1.10;;;0.60;;
58302;SDS011;44109;52.398;7.024;2023-08-31T14:33:54;0.38;;;0.30;;
58302;SDS011;44109;52.398;7.024;2023-08-31T14:36:22;1.35;;;0.50;;
58302;SDS011;44109;52.398;7.024;2023-08-31T14:38:52;2.22;;;0.68;;
58302;SDS011;44109;52.398;7.024;2023-08-31T14:41:20;0.47;;;0.30;;
58302;SDS011;44109;52.398;7.024;2023-08-31T14:43:48;1.95;;;0.35;;
58302;SDS011;44109;52.398;7.024;2023-08-31T14:46:16;0.77;;;0.43;;
58302;SDS011;44109;52.398;7.024;2023-08-31T14:48:45;0.50;;;0.20;;
58302;SDS011;44109;52.398;7.024;2023-08-31T14:51:12;2.90;;;0.57;;
58302;SDS011;44109;52.398;7.024;2023-08-31T14:53:40;0.60;;;0.38;;
58302;SDS011;44109;52.398;7.024;2023-08-31T14:56:08;1.15;;;0.55;;
58302;SDS011;44109;52.398;7.024;2023-08-31T14:58:35;1.73;;;0.57;;
58302;SDS011;44109;52.398;7.024;2023-08-31T15:01:03;1.58;;;0.40;;
58302;SDS011;44109;52.398;7.024;2023-08-31T15:03:30;2.58;;;0.85;;
58302;SDS011;44109;52.398;7.024;2023-08-31T15:06:00;2.80;;;0.63;;